createdAt,value
2018-03-14T00:00:35.277Z,2.30
2018-03-14T00:03:02.905Z,1.53
2018-03-14T00:05:30.599Z,1.90
2018-03-14T00:07:58.271Z,2.10
2018-03-14T00:10:25.924Z,2.00
2018-03-14T00:13:01.018Z,2.07
2018-03-14T00:15:28.743Z,2.00
2018-03-14T00:17:56.418Z,2.03
2018-03-14T00:20:24.022Z,2.07
2018-03-14T00:22:51.772Z,2.13
2018-03-14T00:25:19.508Z,2.60
2018-03-14T00:27:48.095Z,1.60
2018-03-14T00:30:15.701Z,1.37
2018-03-14T00:32:43.387Z,2.50
2018-03-14T00:35:10.972Z,2.27
2018-03-14T00:37:38.619Z,2.23
2018-03-14T00:40:06.261Z,2.67
2018-03-14T00:42:34.831Z,2.27
2018-03-14T00:45:02.801Z,1.50
2018-03-14T00:47:30.641Z,1.87
2018-03-14T00:49:58.336Z,1.60
2018-03-14T00:52:25.998Z,1.80
2018-03-14T00:54:53.754Z,1.70
2018-03-14T00:57:21.488Z,1.50
2018-03-14T00:59:49.130Z,1.20
2018-03-14T01:02:17.051Z,1.60
2018-03-14T01:04:44.723Z,2.60
2018-03-14T01:07:12.358Z,1.87
2018-03-14T01:09:40.293Z,2.00
2018-03-14T01:12:07.940Z,2.27
2018-03-14T01:14:35.563Z,1.70
2018-03-14T01:17:03.172Z,1.93
2018-03-14T01:19:30.816Z,2.93
2018-03-14T01:21:58.522Z,2.33
2018-03-14T01:24:26.184Z,2.27
2018-03-14T01:26:54.193Z,2.63
2018-03-14T01:29:21.850Z,2.10
2018-03-14T01:31:50.452Z,1.93
2018-03-14T01:34:18.086Z,2.70
2018-03-14T01:36:45.788Z,1.83
2018-03-14T01:39:13.470Z,2.13
2018-03-14T01:41:41.086Z,2.10
2018-03-14T01:44:08.833Z,1.77
2018-03-14T01:46:36.708Z,2.00
2018-03-14T01:49:04.892Z,2.43
2018-03-14T01:51:32.500Z,2.93
2018-03-14T01:54:00.530Z,2.73
2018-03-14T01:56:28.405Z,2.30
2018-03-14T01:58:56.069Z,2.53
2018-03-14T02:01:23.678Z,2.10
2018-03-14T02:03:51.306Z,3.73
2018-03-14T02:06:19.996Z,1.67
2018-03-14T02:08:48.027Z,2.47
2018-03-14T02:11:15.962Z,1.47
2018-03-14T02:13:43.605Z,2.17
2018-03-14T02:16:11.333Z,1.67
2018-03-14T02:18:39.036Z,2.23
2018-03-14T02:21:06.622Z,1.70
2018-03-14T02:23:34.202Z,1.60
2018-03-14T02:26:01.889Z,1.10
2018-03-14T02:28:29.483Z,1.17
2018-03-14T02:30:57.127Z,1.80
2018-03-14T02:33:25.024Z,1.30
2018-03-14T02:35:52.652Z,1.73
2018-03-14T02:38:20.284Z,2.10
2018-03-14T02:40:48.017Z,2.00
2018-03-14T02:43:15.622Z,2.20
2018-03-14T02:45:43.232Z,2.63
2018-03-14T02:48:10.931Z,1.90
2018-03-14T02:50:38.516Z,1.37
2018-03-14T02:53:06.171Z,1.73
2018-03-14T02:55:33.839Z,1.90
2018-03-14T02:58:01.438Z,2.03
2018-03-14T03:00:29.078Z,1.97
2018-03-14T03:02:56.671Z,2.90
2018-03-14T03:05:24.615Z,1.90
2018-03-14T03:07:52.227Z,2.30
2018-03-14T03:10:19.886Z,1.60
2018-03-14T03:15:43.284Z,1.73
2018-03-14T03:18:10.956Z,1.60
2018-03-14T03:20:38.525Z,2.27
2018-03-14T03:23:06.091Z,1.80
2018-03-14T03:25:33.684Z,1.87
2018-03-14T03:28:01.263Z,2.00
2018-03-14T03:30:28.976Z,2.40
2018-03-14T03:32:56.917Z,1.70
2018-03-14T03:35:24.782Z,2.10
2018-03-14T03:37:52.536Z,2.20
2018-03-14T03:40:20.144Z,1.93
2018-03-14T03:42:47.722Z,2.43
2018-03-14T03:45:15.423Z,2.10
2018-03-14T03:47:43.353Z,2.70
2018-03-14T03:50:10.911Z,2.50
2018-03-14T03:52:38.489Z,1.53
2018-03-14T03:55:06.082Z,1.97
2018-03-14T03:57:33.743Z,2.57
2018-03-14T04:00:01.368Z,1.93
2018-03-14T04:02:29.018Z,2.03
2018-03-14T04:04:56.684Z,1.90
2018-03-14T04:07:24.264Z,2.00
2018-03-14T04:09:51.878Z,1.93
2018-03-14T04:12:19.576Z,2.07
2018-03-14T04:14:47.207Z,1.87
2018-03-14T04:17:14.830Z,1.97
2018-03-14T04:19:42.617Z,1.90
2018-03-14T04:22:10.306Z,2.20
2018-03-14T04:24:37.871Z,2.03
2018-03-14T04:27:05.692Z,1.90
2018-03-14T04:29:33.418Z,1.93
2018-03-14T04:32:02.044Z,1.80
2018-03-14T04:34:30.322Z,2.67
2018-03-14T04:36:58.024Z,2.60
2018-03-14T04:39:25.586Z,2.80
2018-03-14T04:41:53.472Z,2.50
2018-03-14T04:44:21.085Z,2.10
2018-03-14T04:46:48.677Z,2.30
2018-03-14T04:49:16.600Z,2.70
2018-03-14T04:51:44.491Z,2.33
2018-03-14T04:54:12.122Z,2.40
2018-03-14T04:56:39.751Z,1.67
2018-03-14T04:59:07.395Z,2.07
2018-03-14T05:01:34.969Z,2.20
2018-03-14T05:04:02.620Z,2.43
2018-03-14T05:06:30.207Z,2.20
2018-03-14T05:08:57.964Z,1.90
2018-03-14T05:11:26.011Z,1.70
2018-03-14T05:13:53.905Z,2.23
2018-03-14T05:16:21.781Z,1.70
2018-03-14T05:18:49.367Z,1.90
2018-03-14T05:21:17.523Z,2.07
2018-03-14T05:23:45.152Z,2.40
2018-03-14T05:26:12.714Z,2.00
2018-03-14T05:28:40.362Z,2.00
2018-03-14T05:31:08.037Z,2.00
2018-03-14T05:33:36.334Z,1.93
2018-03-14T05:36:04.656Z,1.60
2018-03-14T05:38:32.417Z,1.40
2018-03-14T05:41:00.291Z,1.90
2018-03-14T05:43:28.354Z,1.70
2018-03-14T05:45:56.458Z,1.37
2018-03-14T05:48:24.114Z,1.40
2018-03-14T05:50:51.815Z,1.10
2018-03-14T05:53:19.493Z,2.47
2018-03-14T05:55:47.581Z,2.43
2018-03-14T05:58:15.490Z,2.50
2018-03-14T06:00:43.227Z,2.43
2018-03-14T06:03:10.936Z,1.90
2018-03-14T06:05:38.507Z,2.00
2018-03-14T06:08:06.154Z,3.93
2018-03-14T06:10:33.762Z,1.87
2018-03-14T06:13:01.379Z,2.20
2018-03-14T06:15:28.983Z,1.43
2018-03-14T06:17:56.645Z,1.90
2018-03-14T06:20:24.267Z,2.03
2018-03-14T06:22:51.884Z,2.60
2018-03-14T06:25:19.482Z,1.90
2018-03-14T06:27:47.080Z,2.80
2018-03-14T06:30:14.727Z,2.53
2018-03-14T06:32:42.422Z,2.70
2018-03-14T06:35:10.003Z,2.17
2018-03-14T06:37:37.685Z,2.70
2018-03-14T06:40:05.398Z,2.23
2018-03-14T06:42:33.009Z,2.07
2018-03-14T06:45:00.886Z,2.33
2018-03-14T06:47:28.554Z,3.00
2018-03-14T06:49:56.174Z,3.17
2018-03-14T06:52:24.225Z,2.50
2018-03-14T06:54:51.927Z,3.43
2018-03-14T06:57:19.750Z,3.30
2018-03-14T06:59:59.008Z,2.20
2018-03-14T07:02:38.623Z,2.33
2018-03-14T07:05:18.074Z,3.17
2018-03-14T07:07:45.701Z,3.60
2018-03-14T07:10:13.385Z,3.27
2018-03-14T07:12:41.044Z,2.53
2018-03-14T07:15:08.656Z,3.23
2018-03-14T07:17:36.239Z,5.53
2018-03-14T07:20:03.940Z,2.63
2018-03-14T07:22:31.563Z,2.50
2018-03-14T07:24:59.310Z,2.40
2018-03-14T07:27:26.910Z,2.10
2018-03-14T07:29:54.524Z,2.17
2018-03-14T07:32:22.177Z,2.77
2018-03-14T07:34:49.807Z,2.60
2018-03-14T07:37:17.482Z,2.90
2018-03-14T07:39:45.375Z,1.73
2018-03-14T07:42:13.020Z,2.73
2018-03-14T07:44:40.728Z,2.60
2018-03-14T07:47:08.479Z,2.23
2018-03-14T07:49:36.181Z,2.93
2018-03-14T07:52:03.856Z,2.20
2018-03-14T07:54:31.441Z,2.77
2018-03-14T07:56:59.029Z,2.40
2018-03-14T07:59:26.616Z,3.30
2018-03-14T08:01:54.203Z,3.03
2018-03-14T08:04:21.776Z,2.57
2018-03-14T08:06:49.379Z,1.77
2018-03-14T08:09:16.954Z,1.63
2018-03-14T08:11:44.553Z,1.40
2018-03-14T08:14:12.138Z,1.77
2018-03-14T08:16:39.975Z,2.00
2018-03-14T08:19:07.877Z,1.60
2018-03-14T08:21:35.560Z,2.20
2018-03-14T08:24:03.183Z,2.23
2018-03-14T08:26:31.129Z,1.47
2018-03-14T08:28:58.844Z,1.97
2018-03-14T08:31:26.452Z,3.30
2018-03-14T08:33:54.068Z,2.03
2018-03-14T08:36:21.673Z,1.50
2018-03-14T08:38:49.281Z,1.97
2018-03-14T08:41:17.528Z,1.80
2018-03-14T08:43:45.125Z,1.67
2018-03-14T08:46:12.932Z,2.10
2018-03-14T08:48:40.564Z,2.13
2018-03-14T08:51:08.208Z,1.80
2018-03-14T08:53:35.781Z,1.77
2018-03-14T08:56:03.451Z,1.87
2018-03-14T08:58:31.084Z,2.57
2018-03-14T09:00:58.740Z,1.90
2018-03-14T09:03:26.379Z,2.30
2018-03-14T09:05:53.959Z,2.50
2018-03-14T09:08:21.579Z,2.87
2018-03-14T09:10:49.248Z,2.20
2018-03-14T09:13:16.872Z,1.70
2018-03-14T09:15:44.472Z,2.53
2018-03-14T09:18:12.112Z,1.50
2018-03-14T09:20:39.685Z,1.67
2018-03-14T09:23:07.422Z,1.40
2018-03-14T09:25:34.975Z,1.50
2018-03-14T09:28:12.636Z,0.97
2018-03-14T09:30:40.374Z,1.27
2018-03-14T09:33:08.077Z,1.83
2018-03-14T09:35:35.853Z,2.00
2018-03-14T09:38:03.577Z,1.63
2018-03-14T09:40:31.235Z,1.60
2018-03-14T09:42:59.037Z,2.07
2018-03-14T09:45:26.751Z,1.53
2018-03-14T09:47:54.514Z,1.80
2018-03-14T09:50:22.297Z,1.63
2018-03-14T09:52:50.143Z,1.67
2018-03-14T09:55:17.838Z,1.37
2018-03-14T09:57:45.555Z,2.00
2018-03-14T10:00:13.271Z,1.40
2018-03-14T10:02:40.916Z,1.33
2018-03-14T10:05:08.667Z,1.67
2018-03-14T10:07:36.639Z,2.30
2018-03-14T10:10:04.300Z,1.67
2018-03-14T10:12:31.952Z,1.30
2018-03-14T10:14:59.629Z,2.10
2018-03-14T10:17:27.345Z,1.77
2018-03-14T10:19:55.092Z,2.60
2018-03-14T10:22:22.872Z,2.73
2018-03-14T10:24:50.545Z,1.63
2018-03-14T10:27:18.804Z,1.33
2018-03-14T10:29:46.608Z,1.23
2018-03-14T10:32:27.785Z,1.37
2018-03-14T10:34:55.828Z,1.30
2018-03-14T10:37:23.458Z,1.73
2018-03-14T10:39:51.134Z,1.33
2018-03-14T10:42:18.801Z,1.63
2018-03-14T10:44:46.422Z,1.50
2018-03-14T10:47:14.289Z,2.13
2018-03-14T10:49:42.286Z,2.07
2018-03-14T10:52:10.041Z,1.50
2018-03-14T10:54:37.695Z,2.03
2018-03-14T10:57:05.376Z,2.20
2018-03-14T10:59:33.006Z,1.50
2018-03-14T11:02:06.313Z,1.57
2018-03-14T11:04:43.962Z,1.83
2018-03-14T11:07:11.926Z,2.80
2018-03-14T11:09:42.928Z,2.37
2018-03-14T11:12:11.576Z,2.60
2018-03-14T11:14:43.453Z,2.10
2018-03-14T11:17:11.368Z,1.70
2018-03-14T11:19:49.102Z,1.70
2018-03-14T11:22:16.963Z,2.33
2018-03-14T11:24:44.892Z,2.23
2018-03-14T11:27:13.019Z,1.80
2018-03-14T11:29:45.020Z,2.47
2018-03-14T11:32:14.939Z,2.00
2018-03-14T11:34:44.369Z,2.10
2018-03-14T11:37:18.130Z,1.97
2018-03-14T11:39:45.950Z,1.83
2018-03-14T11:42:14.096Z,2.10
2018-03-14T11:44:44.498Z,2.37
2018-03-14T11:47:12.259Z,2.30
2018-03-14T11:49:39.962Z,2.40
2018-03-14T11:52:07.625Z,2.30
2018-03-14T11:54:35.382Z,12.00
2018-03-14T11:57:03.088Z,2.77
2018-03-14T11:59:30.939Z,2.87
2018-03-14T12:01:58.645Z,1.93
2018-03-14T12:04:26.415Z,2.30
2018-03-14T12:06:54.439Z,2.77
2018-03-14T12:09:22.088Z,2.07
2018-03-14T12:11:50.253Z,1.90
2018-03-14T12:14:18.318Z,1.60
2018-03-14T12:16:46.051Z,2.60
2018-03-14T12:19:14.448Z,2.43
2018-03-14T12:21:42.738Z,2.57
2018-03-14T12:24:10.901Z,2.50
2018-03-14T12:26:38.542Z,2.40
2018-03-14T12:29:06.656Z,2.13
2018-03-14T12:31:34.361Z,2.40
2018-03-14T12:34:02.029Z,2.10
2018-03-14T12:36:29.822Z,1.97
2018-03-14T12:38:57.665Z,1.63
2018-03-14T12:41:25.326Z,2.50
2018-03-14T12:43:53.043Z,2.37
2018-03-14T12:46:21.406Z,1.90
2018-03-14T12:48:49.149Z,2.00
2018-03-14T12:51:17.329Z,2.40
2018-03-14T12:53:45.404Z,1.90
2018-03-14T12:56:13.254Z,2.30
2018-03-14T12:58:40.940Z,2.50
2018-03-14T13:01:08.746Z,2.10
2018-03-14T13:03:36.443Z,1.97
2018-03-14T13:06:04.449Z,1.70
2018-03-14T13:08:32.218Z,3.53
2018-03-14T13:11:00.206Z,2.10
2018-03-14T13:13:28.358Z,3.03
2018-03-14T13:15:56.101Z,2.00
2018-03-14T13:18:24.079Z,2.83
2018-03-14T13:20:51.906Z,2.87
2018-03-14T13:23:19.677Z,1.90
2018-03-14T13:25:47.478Z,1.93
2018-03-14T13:28:15.483Z,2.47
2018-03-14T13:30:43.635Z,2.60
2018-03-14T13:33:13.608Z,2.23
2018-03-14T13:35:42.711Z,1.97
2018-03-14T13:38:11.715Z,2.30
2018-03-14T13:40:40.434Z,2.23
2018-03-14T13:43:09.310Z,1.80
2018-03-14T13:45:38.105Z,1.93
2018-03-14T13:48:06.878Z,1.77
2018-03-14T13:50:34.697Z,1.60
2018-03-14T13:53:02.345Z,2.30
2018-03-14T13:55:30.237Z,2.40
2018-03-14T13:57:58.012Z,2.20
2018-03-14T14:00:25.790Z,2.33
2018-03-14T14:02:53.568Z,2.03
2018-03-14T14:05:21.391Z,1.87
2018-03-14T14:07:49.118Z,2.70
2018-03-14T14:10:17.204Z,2.70
2018-03-14T14:12:45.652Z,2.10
2018-03-14T14:15:13.332Z,2.83
2018-03-14T14:17:41.010Z,3.53
2018-03-14T14:20:08.673Z,1.60
2018-03-14T14:22:36.410Z,2.70
2018-03-14T14:25:04.213Z,1.70
2018-03-14T14:27:31.900Z,1.73
2018-03-14T14:29:59.515Z,3.17
2018-03-14T14:32:27.195Z,2.10
2018-03-14T14:34:54.861Z,1.77
2018-03-14T14:37:22.483Z,2.57
2018-03-14T14:39:50.156Z,1.97
2018-03-14T14:42:20.374Z,2.70
2018-03-14T14:44:48.402Z,2.17
2018-03-14T14:47:16.235Z,2.50
2018-03-14T14:49:43.886Z,2.63
2018-03-14T14:52:11.550Z,2.37
2018-03-14T14:54:39.162Z,2.40
2018-03-14T14:57:06.840Z,2.20
2018-03-14T14:59:34.565Z,1.80
2018-03-14T15:02:02.181Z,2.50
2018-03-14T15:04:30.044Z,1.67
2018-03-14T15:06:57.680Z,2.63
2018-03-14T15:09:25.396Z,2.60
2018-03-14T15:11:53.013Z,2.40
2018-03-14T15:14:20.824Z,3.67
2018-03-14T15:16:48.421Z,2.00
2018-03-14T15:19:16.016Z,1.90
2018-03-14T15:21:43.907Z,3.10
2018-03-14T15:24:11.497Z,2.00
2018-03-14T15:26:39.114Z,2.20
2018-03-14T15:29:06.756Z,2.67
2018-03-14T15:31:34.421Z,3.10
2018-03-14T15:34:02.073Z,2.90
2018-03-14T15:36:29.716Z,2.70
2018-03-14T15:38:58.188Z,2.73
2018-03-14T15:41:38.146Z,2.47
2018-03-14T15:44:05.760Z,2.00
2018-03-14T15:46:33.412Z,1.97
2018-03-14T15:49:01.040Z,1.60
2018-03-14T15:51:28.616Z,3.90
2018-03-14T15:53:56.209Z,1.83
2018-03-14T15:56:23.932Z,2.57
2018-03-14T15:58:51.644Z,1.80
2018-03-14T16:01:19.276Z,2.40
2018-03-14T16:03:47.143Z,2.87
2018-03-14T16:06:14.867Z,2.77
2018-03-14T16:08:42.775Z,2.10
2018-03-14T16:11:10.346Z,2.57
2018-03-14T16:13:37.983Z,3.13
2018-03-14T16:16:05.595Z,3.83
2018-03-14T16:18:33.239Z,2.10
2018-03-14T16:21:01.030Z,2.90
2018-03-14T16:23:28.608Z,2.70
2018-03-14T16:25:56.212Z,3.60
2018-03-14T16:28:23.897Z,2.60
2018-03-14T16:30:51.506Z,2.57
2018-03-14T16:33:19.113Z,2.40
2018-03-14T16:35:46.713Z,3.73
2018-03-14T16:38:14.468Z,2.63
2018-03-14T16:40:42.076Z,2.00
2018-03-14T16:43:09.671Z,2.30
2018-03-14T16:45:37.274Z,4.17
2018-03-14T16:48:04.916Z,3.00
2018-03-14T16:50:32.583Z,2.53
2018-03-14T16:53:00.254Z,2.80
2018-03-14T16:55:27.840Z,2.37
2018-03-14T16:57:55.491Z,2.50
2018-03-14T17:00:23.050Z,2.83
2018-03-14T17:02:50.700Z,3.07
2018-03-14T17:05:18.370Z,2.80
2018-03-14T17:07:47.009Z,2.90
2018-03-14T17:10:14.764Z,2.97
2018-03-14T17:12:44.152Z,2.13
2018-03-14T17:15:12.076Z,2.47
2018-03-14T17:17:39.679Z,2.73
2018-03-14T17:20:07.258Z,2.43
2018-03-14T17:22:34.831Z,2.87
2018-03-14T17:25:02.462Z,2.90
2018-03-14T17:27:30.114Z,2.67
2018-03-14T17:29:57.809Z,4.13
2018-03-14T17:32:25.436Z,2.73
2018-03-14T17:34:53.131Z,3.33
2018-03-14T17:37:21.068Z,3.40
2018-03-14T17:39:48.706Z,3.47
2018-03-14T17:42:17.532Z,2.70
2018-03-14T17:44:45.098Z,3.67
2018-03-14T17:47:12.741Z,3.47
2018-03-14T17:49:40.734Z,3.60
2018-03-14T17:52:08.312Z,3.27
2018-03-14T17:54:35.883Z,3.20
2018-03-14T17:57:03.539Z,2.67
2018-03-14T17:59:31.375Z,3.03
2018-03-14T18:01:58.980Z,3.60
2018-03-14T18:04:26.693Z,4.67
2018-03-14T18:06:54.282Z,5.03
2018-03-14T18:09:22.091Z,6.03
2018-03-14T18:11:49.679Z,7.87
2018-03-14T18:14:17.415Z,4.67
2018-03-14T18:16:45.005Z,3.90
2018-03-14T18:19:12.888Z,4.40
2018-03-14T18:21:40.664Z,4.90
2018-03-14T18:24:08.479Z,3.60
2018-03-14T18:26:36.050Z,4.20
2018-03-14T18:29:03.636Z,4.57
2018-03-14T18:31:31.309Z,4.03
2018-03-14T18:33:58.955Z,3.53
2018-03-14T18:36:26.558Z,3.83
2018-03-14T18:38:54.181Z,4.43
2018-03-14T18:41:21.898Z,3.90
2018-03-14T18:43:49.500Z,4.60
2018-03-14T18:46:17.133Z,3.90
2018-03-14T18:48:44.734Z,5.40
2018-03-14T18:51:12.454Z,5.20
2018-03-14T18:53:40.089Z,4.97
2018-03-14T18:56:07.683Z,4.90
2018-03-14T18:58:35.294Z,4.57
2018-03-14T19:01:02.938Z,4.00
2018-03-14T19:03:30.606Z,4.07
2018-03-14T19:05:58.252Z,4.53
2018-03-14T19:08:25.872Z,4.50
2018-03-14T19:10:53.496Z,5.23
2018-03-14T19:13:21.129Z,4.57
2018-03-14T19:15:49.123Z,4.10
2018-03-14T19:18:16.899Z,4.63
2018-03-14T19:20:44.673Z,4.73
2018-03-14T19:23:12.713Z,4.00
2018-03-14T19:25:40.444Z,4.20
2018-03-14T19:28:08.141Z,5.40
2018-03-14T19:30:36.009Z,4.50
2018-03-14T19:33:03.631Z,4.03
2018-03-14T19:35:31.324Z,4.50
2018-03-14T19:37:58.960Z,5.43
2018-03-14T19:40:26.659Z,3.33
2018-03-14T19:42:54.295Z,4.07
2018-03-14T19:45:21.898Z,3.80
2018-03-14T19:47:49.602Z,3.50
2018-03-14T19:50:17.168Z,3.53
2018-03-14T19:52:44.736Z,3.80
2018-03-14T19:55:12.733Z,4.33
2018-03-14T19:57:40.467Z,4.03
2018-03-14T20:00:08.128Z,4.43
2018-03-14T20:02:35.825Z,3.27
2018-03-14T20:05:03.436Z,3.73
2018-03-14T20:07:31.174Z,3.03
2018-03-14T20:09:59.235Z,3.43
2018-03-14T20:12:48.403Z,2.93
2018-03-14T20:15:16.108Z,3.30
2018-03-14T20:17:43.742Z,3.27
2018-03-14T20:20:11.454Z,4.00
2018-03-14T20:25:49.084Z,3.80
2018-03-14T20:28:16.791Z,3.40
2018-03-14T20:30:44.369Z,3.47
2018-03-14T20:33:12.072Z,3.10
2018-03-14T20:35:40.425Z,4.37
2018-03-14T20:38:08.187Z,4.60
2018-03-14T20:40:35.780Z,3.77
2018-03-14T20:43:03.645Z,5.77
2018-03-14T20:45:32.858Z,4.27
2018-03-14T20:48:00.434Z,4.70
2018-03-14T20:50:28.086Z,5.90
2018-03-14T20:52:55.743Z,5.70
2018-03-14T20:55:23.353Z,6.47
2018-03-14T20:57:51.126Z,6.37
2018-03-14T21:00:18.787Z,6.30
2018-03-14T21:02:46.416Z,7.53
2018-03-14T21:05:14.127Z,7.70
2018-03-14T21:07:41.757Z,7.40
2018-03-14T21:10:09.437Z,7.70
2018-03-14T21:12:37.166Z,7.00
2018-03-14T21:15:04.836Z,7.60
2018-03-14T21:17:32.562Z,6.47
2018-03-14T21:20:00.156Z,7.73
2018-03-14T21:22:27.805Z,7.63
2018-03-14T21:24:55.514Z,8.67
2018-03-14T21:27:23.178Z,8.93
2018-03-14T21:29:50.824Z,8.63
2018-03-14T21:32:18.549Z,9.23
2018-03-14T21:34:46.404Z,8.90
2018-03-14T21:37:14.132Z,9.13
2018-03-14T21:39:41.820Z,9.17
2018-03-14T21:42:09.560Z,9.20
2018-03-14T21:44:38.204Z,9.00
2018-03-14T21:47:05.950Z,9.73
2018-03-14T21:49:33.629Z,7.67
2018-03-14T21:52:01.218Z,8.07
2018-03-14T21:54:29.045Z,8.87
2018-03-14T21:56:56.970Z,8.57
2018-03-14T21:59:24.774Z,9.13
2018-03-14T22:01:53.724Z,8.87
2018-03-14T22:04:21.656Z,8.93
2018-03-14T22:06:49.986Z,8.90
2018-03-14T22:09:17.770Z,8.80
2018-03-14T22:11:45.685Z,10.40
2018-03-14T22:14:13.426Z,9.30
2018-03-14T22:16:41.185Z,9.03
2018-03-14T22:19:09.354Z,9.27
2018-03-14T22:21:37.081Z,8.73
2018-03-14T22:24:04.852Z,8.93
2018-03-14T22:26:32.582Z,7.80
2018-03-14T22:29:00.269Z,8.50
2018-03-14T22:31:28.242Z,8.33
2018-03-14T22:33:56.086Z,9.57
2018-03-14T22:36:23.906Z,8.60
2018-03-14T22:38:52.559Z,8.50
2018-03-14T22:41:21.054Z,8.23
2018-03-14T22:43:48.875Z,8.33
2018-03-14T22:46:17.154Z,7.97
2018-03-14T22:48:46.101Z,8.60
2018-03-14T22:51:13.982Z,8.97
2018-03-14T22:53:41.785Z,8.10
2018-03-14T22:56:09.688Z,9.50
2018-03-14T22:58:37.393Z,8.73
2018-03-14T23:01:05.144Z,7.83
2018-03-14T23:03:33.783Z,9.00
2018-03-14T23:06:01.644Z,9.57
2018-03-14T23:08:31.096Z,8.03
2018-03-14T23:10:59.568Z,7.70
2018-03-14T23:13:27.188Z,8.40
2018-03-14T23:15:54.861Z,7.83
2018-03-14T23:18:22.727Z,8.50
2018-03-14T23:20:51.058Z,9.17
2018-03-14T23:23:18.773Z,8.33
2018-03-14T23:25:47.405Z,8.52
2018-03-14T23:28:15.075Z,8.90
2018-03-14T23:30:42.824Z,9.50
2018-03-14T23:33:11.281Z,9.83
2018-03-14T23:35:39.325Z,10.57
2018-03-14T23:38:07.559Z,8.23
2018-03-14T23:40:35.606Z,9.40
2018-03-14T23:43:03.807Z,9.32
2018-03-14T23:45:31.551Z,10.15
2018-03-14T23:47:59.172Z,8.40
2018-03-14T23:50:26.919Z,10.93
2018-03-14T23:52:54.599Z,9.53
2018-03-14T23:55:22.507Z,11.00
2018-03-14T23:57:50.266Z,9.75
